Time;durP1;ratioP1;P1;durP2;ratioP2;P2;SDS_P1;SDS_P2;PMS_P1;PMS_P2;Temp;Humidity;BMP_temperature;BMP_pressure;BME280_temperature;BME280_humidity;BME280_pressure;Samples;Min_cycle;Max_cycle;Signal;HPM_P1;HPM_P2
2023/05/26 00:00:58;;;;;;;36.03;6.18;;;11.30;95.90;;;;;;6241356;23;20004;-69
2023/05/26 00:03:27;;;;;;;20.60;5.28;;;11.20;96.10;;;;;;6241429;23;20000;-68
2023/05/26 00:05:54;;;;;;;28.58;6.68;;;11.20;96.20;;;;;;6241564;23;20211;-68
2023/05/26 00:08:21;;;;;;;25.13;5.63;;;11.20;96.30;;;;;;6241507;23;20006;-69
2023/05/26 00:10:46;;;;;;;19.92;5.13;;;11.20;96.50;;;;;;6241757;23;20001;-69
2023/05/26 00:13:12;;;;;;;29.27;6.72;;;11.10;96.60;;;;;;6241183;23;20082;-69
2023/05/26 00:15:38;;;;;;;23.33;5.60;;;11.10;96.70;;;;;;6241570;23;20000;-69
2023/05/26 00:18:05;;;;;;;25.38;6.13;;;11.10;96.80;;;;;;6241789;23;20004;-69
2023/05/26 00:20:31;;;;;;;25.50;5.65;;;11.10;97.00;;;;;;6241776;23;20062;-68
2023/05/26 00:22:56;;;;;;;26.67;4.82;;;11.00;97.10;;;;;;6241874;23;20396;-69
2023/05/26 00:25:22;;;;;;;21.33;6.07;;;11.00;97.20;;;;;;6241118;23;20019;-68
2023/05/26 00:27:48;;;;;;;28.17;7.35;;;10.90;97.40;;;;;;6241673;23;20031;-68
2023/05/26 00:30:14;;;;;;;29.60;6.07;;;10.90;97.50;;;;;;6214089;23;20141;-68
2023/05/26 00:32:39;;;;;;;23.60;5.15;;;10.90;97.70;;;;;;6241661;23;20104;-69
2023/05/26 00:35:05;;;;;;;26.92;5.22;;;10.90;97.90;;;;;;6241649;23;20452;-69
2023/05/26 00:37:32;;;;;;;22.02;6.10;;;10.80;97.90;;;;;;6241442;23;20053;-68
2023/05/26 00:39:58;;;;;;;26.48;5.32;;;10.80;98.00;;;;;;6214349;23;20012;-69
2023/05/26 00:42:24;;;;;;;22.20;5.25;;;10.80;98.10;;;;;;6214467;23;20329;-69
2023/05/26 00:44:52;;;;;;;27.48;5.75;;;10.70;98.20;;;;;;6241081;23;20057;-69
2023/05/26 00:47:18;;;;;;;22.58;5.38;;;10.70;98.50;;;;;;6241176;23;20004;-69
2023/05/26 00:49:44;;;;;;;31.38;6.10;;;10.70;98.40;;;;;;6241737;23;19996;-69
2023/05/26 00:52:11;;;;;;;30.10;6.13;;;10.60;98.50;;;;;;6241350;23;20035;-68
2023/05/26 00:54:39;;;;;;;27.63;7.18;;;10.60;98.60;;;;;;6241667;23;20007;-68
2023/05/26 00:57:06;;;;;;;24.33;5.57;;;10.60;98.70;;;;;;6241566;23;20059;-68
2023/05/26 00:59:32;;;;;;;35.35;6.18;;;10.60;98.80;;;;;;6240750;23;20399;-68
2023/05/26 01:01:58;;;;;;;29.20;6.53;;;10.50;98.90;;;;;;6214562;23;20000;-70
2023/05/26 01:04:24;;;;;;;27.42;5.88;;;10.60;99.00;;;;;;6241263;23;20014;-69
2023/05/26 01:06:50;;;;;;;24.23;5.15;;;10.50;99.40;;;;;;6241404;23;20075;-69
2023/05/26 01:09:16;;;;;;;18.77;4.07;;;10.50;99.10;;;;;;6241243;23;20054;-69
2023/05/26 01:11:54;;;;;;;25.30;5.78;;;10.50;99.20;;;;;;6241622;23;19996;-69
2023/05/26 01:14:22;;;;;;;28.92;5.32;;;10.50;99.30;;;;;;6240648;23;20016;-70
2023/05/26 01:16:59;;;;;;;35.13;5.65;;;10.50;99.30;;;;;;6241463;23;20000;-69
2023/05/26 01:19:42;;;;;;;19.65;4.95;;;10.50;99.50;;;;;;6240973;23;20004;-69
2023/05/26 01:22:50;;;;;;;25.33;5.60;;;10.40;99.50;;;;;;6241249;23;20000;-69
2023/05/26 01:25:41;;;;;;;23.92;5.88;;;10.40;99.60;;;;;;6240865;23;20011;-69
2023/05/26 01:28:22;;;;;;;31.40;7.68;;;10.40;99.70;;;;;;6240888;23;20008;-69
2023/05/26 01:30:48;;;;;;;33.03;6.45;;;10.30;99.90;;;;;;6241366;23;20011;-70
2023/05/26 01:33:14;;;;;;;25.88;6.25;;;10.30;99.90;;;;;;6241182;23;20004;-69
2023/05/26 01:35:40;;;;;;;23.27;4.70;;;10.30;99.90;;;;;;6241357;23;20444;-69
2023/05/26 01:38:07;;;;;;;21.17;5.55;;;10.20;99.90;;;;;;6215195;23;20000;-69
2023/05/26 01:40:33;;;;;;;35.28;6.80;;;10.20;99.90;;;;;;6243238;23;19996;-69
2023/05/26 01:43:07;;;;;;;24.80;5.60;;;10.20;99.90;;;;;;6242891;23;20015;-70
2023/05/26 01:45:46;;;;;;;;;;;10.20;99.90;;;;;;6216682;23;20004;-68
2023/05/26 01:48:14;;;;;;;26.85;5.20;;;10.10;99.90;;;;;;6243237;23;19903;-69
2023/05/26 01:51:01;;;;;;;21.15;3.85;;;10.10;99.90;;;;;;6243628;23;20000;-69
2023/05/26 01:53:33;;;;;;;24.85;5.38;;;10.10;99.90;;;;;;6242797;23;20050;-69
2023/05/26 01:56:00;;;;;;;30.38;5.75;;;10.10;99.90;;;;;;6241693;23;20083;-69
2023/05/26 01:58:27;;;;;;;23.83;5.35;;;10.10;99.90;;;;;;6214696;23;20083;-69
2023/05/26 02:00:53;;;;;;;32.80;6.75;;;10.10;99.90;;;;;;6241517;23;20024;-69
2023/05/26 02:03:20;;;;;;;26.20;4.78;;;10.00;99.90;;;;;;6241823;23;20023;-69
2023/05/26 02:05:46;;;;;;;29.00;6.03;;;10.00;99.90;;;;;;6241322;23;19996;-69
2023/05/26 02:08:12;;;;;;;35.42;7.43;;;10.00;99.90;;;;;;6242857;23;20023;-69
2023/05/26 02:10:38;;;;;;;24.45;5.03;;;10.00;99.90;;;;;;6242564;23;20012;-69
2023/05/26 02:13:04;;;;;;;23.58;5.10;;;10.00;99.90;;;;;;6242966;23;20418;-70
2023/05/26 02:15:30;;;;;;;28.75;5.75;;;10.00;99.90;;;;;;6242772;23;20080;-69
2023/05/26 02:17:57;;;;;;;23.60;6.22;;;10.00;99.90;;;;;;6243212;23;20329;-69
2023/05/26 02:20:23;;;;;;;27.25;5.82;;;10.00;99.90;;;;;;6242731;23;20008;-69
2023/05/26 02:22:48;;;;;;;31.52;6.22;;;9.90;99.90;;;;;;6242853;23;20031;-69
2023/05/26 02:25:14;;;;;;;23.25;4.40;;;10.00;99.90;;;;;;6242194;23;20011;-69
2023/05/26 02:27:39;;;;;;;26.25;5.22;;;9.90;99.90;;;;;;6243018;23;20012;-69
2023/05/26 02:30:07;;;;;;;26.00;6.32;;;9.90;99.90;;;;;;6242960;23;20014;-69
2023/05/26 02:32:34;;;;;;;30.83;5.88;;;9.90;99.90;;;;;;6242886;23;20087;-69
2023/05/26 02:35:00;;;;;;;24.77;5.53;;;9.90;99.90;;;;;;6242624;23;20079;-69
2023/05/26 02:37:26;;;;;;;29.50;5.68;;;9.80;99.90;;;;;;6242774;23;20046;-69
2023/05/26 02:39:52;;;;;;;30.40;6.03;;;9.80;99.90;;;;;;6242158;23;20001;-69
2023/05/26 02:42:18;;;;;;;33.38;5.82;;;9.80;99.90;;;;;;6242603;23;20418;-69
2023/05/26 02:44:43;;;;;;;29.40;5.55;;;9.80;99.90;;;;;;6242975;23;20007;-69
2023/05/26 02:47:09;;;;;;;25.10;5.30;;;9.80;99.90;;;;;;6215648;23;20005;-69
2023/05/26 02:49:35;;;;;;;23.10;6.47;;;9.70;99.90;;;;;;6242611;23;20418;-69
2023/05/26 02:52:00;;;;;;;19.60;4.07;;;9.70;99.90;;;;;;6242702;23;20079;-69
2023/05/26 02:54:26;;;;;;;25.08;5.35;;;9.70;99.90;;;;;;6241668;23;20039;-69
2023/05/26 02:56:51;;;;;;;28.33;6.05;;;9.70;99.90;;;;;;6242581;23;19992;-69
2023/05/26 02:59:17;;;;;;;19.83;4.20;;;9.70;99.90;;;;;;6242130;23;19993;-69
2023/05/26 03:01:42;;;;;;;22.48;4.57;;;9.70;99.90;;;;;;6242617;23;20004;-69
2023/05/26 03:04:08;;;;;;;18.48;4.55;;;9.60;99.90;;;;;;6242644;23;20058;-69
2023/05/26 03:06:34;;;;;;;31.27;5.05;;;9.60;99.90;;;;;;6242320;23;20134;-69
2023/05/26 03:09:00;;;;;;;22.63;5.00;;;9.60;99.90;;;;;;6242318;23;20091;-69
2023/05/26 03:11:25;;;;;;;30.95;6.60;;;9.50;99.90;;;;;;6242400;23;20004;-69
2023/05/26 03:13:51;;;;;;;21.33;5.22;;;9.50;99.90;;;;;;6242596;23;20005;-69
2023/05/26 03:16:16;;;;;;;27.73;6.68;;;9.50;99.90;;;;;;6242265;23;20028;-69
2023/05/26 03:18:42;;;;;;;24.40;5.85;;;9.50;99.90;;;;;;6242556;23;20010;-69
2023/05/26 03:21:09;;;;;;;23.35;5.15;;;9.50;99.90;;;;;;6242616;23;20436;-70
2023/05/26 03:23:34;;;;;;;28.23;5.22;;;9.40;99.90;;;;;;6214870;23;20015;-69
2023/05/26 03:26:00;;;;;;;22.80;5.13;;;9.40;99.90;;;;;;6242306;23;20334;-69
2023/05/26 03:28:26;;;;;;;18.42;4.43;;;9.40;99.90;;;;;;6242261;23;20043;-69
2023/05/26 03:30:52;;;;;;;33.08;5.65;;;9.40;99.90;;;;;;6242266;23;20004;-69
2023/05/26 03:33:18;;;;;;;27.33;4.78;;;9.40;99.90;;;;;;6242115;23;20422;-69
2023/05/26 03:35:43;;;;;;;26.17;5.82;;;9.40;99.90;;;;;;6242350;23;19996;-69
2023/05/26 03:38:09;;;;;;;26.60;5.47;;;9.30;99.90;;;;;;6241832;23;20004;-69
2023/05/26 03:40:35;;;;;;;30.67;5.88;;;9.30;99.90;;;;;;6242073;23;20026;-69
2023/05/26 03:43:01;;;;;;;26.83;5.57;;;9.30;99.90;;;;;;6215573;23;20015;-69
2023/05/26 03:45:27;;;;;;;25.52;6.63;;;9.30;99.90;;;;;;6241903;23;20008;-69
2023/05/26 03:47:53;;;;;;;29.65;5.38;;;9.30;99.90;;;;;;6242487;23;20022;-69
2023/05/26 03:50:18;;;;;;;25.42;5.45;;;9.30;99.90;;;;;;6242074;23;20390;-70
2023/05/26 03:52:44;;;;;;;17.85;4.43;;;9.30;99.90;;;;;;6241094;23;20049;-69
2023/05/26 03:55:10;;;;;;;24.63;5.95;;;9.30;99.90;;;;;;6242164;23;20000;-69
2023/05/26 03:57:37;;;;;;;24.30;5.40;;;9.30;99.90;;;;;;6242294;23;20004;-69
2023/05/26 04:00:05;;;;;;;26.67;5.70;;;9.30;99.90;;;;;;6241686;23;20001;-69
2023/05/26 04:02:31;;;;;;;16.95;6.00;;;9.30;99.90;;;;;;6241573;23;20010;-69
2023/05/26 04:04:56;;;;;;;28.23;7.00;;;9.30;99.90;;;;;;6241950;23;20039;-69
2023/05/26 04:07:22;;;;;;;29.10;6.22;;;9.30;99.90;;;;;;6241130;23;20004;-69
2023/05/26 04:09:47;;;;;;;29.90;4.90;;;9.30;99.90;;;;;;6242037;23;20004;-70
2023/05/26 04:12:13;;;;;;;29.50;5.43;;;9.30;99.90;;;;;;6241708;23;20003;-69
2023/05/26 04:14:38;;;;;;;25.17;4.88;;;9.30;99.90;;;;;;6242226;23;19996;-70
2023/05/26 04:17:04;;;;;;;27.92;5.40;;;9.30;99.90;;;;;;6242020;23;20410;-69
2023/05/26 04:19:30;;;;;;;23.75;4.97;;;9.30;99.90;;;;;;6241885;23;20001;-69
2023/05/26 04:21:57;;;;;;;33.00;6.72;;;9.30;99.90;;;;;;6241483;23;20004;-69
2023/05/26 04:24:22;;;;;;;22.08;5.18;;;9.30;99.90;;;;;;6241639;23;20004;-69
2023/05/26 04:26:48;;;;;;;25.38;5.63;;;9.30;99.90;;;;;;6215128;23;20166;-70
2023/05/26 04:29:15;;;;;;;29.23;6.22;;;9.40;99.90;;;;;;6241691;23;20000;-69
2023/05/26 04:31:42;;;;;;;20.23;5.88;;;9.40;99.90;;;;;;6242216;23;20027;-71
2023/05/26 04:34:08;;;;;;;24.65;6.43;;;9.40;99.90;;;;;;6214915;23;20008;-71
2023/05/26 04:36:38;;;;;;;30.55;4.88;;;9.40;99.90;;;;;;6241230;23;20000;-71
2023/05/26 04:39:07;;;;;;;28.58;6.07;;;9.40;99.90;;;;;;6214884;23;20075;-70
2023/05/26 04:41:33;;;;;;;26.90;5.60;;;9.50;99.90;;;;;;6241817;23;20058;-70
2023/05/26 04:44:01;;;;;;;28.02;5.13;;;9.50;99.90;;;;;;6241888;23;20015;-71
2023/05/26 04:46:28;;;;;;;28.15;5.75;;;9.50;99.90;;;;;;6241507;23;20008;-70
2023/05/26 04:48:56;;;;;;;22.98;6.35;;;9.50;99.90;;;;;;6241829;23;20014;-70
2023/05/26 04:51:22;;;;;;;23.92;4.85;;;9.60;99.90;;;;;;6240825;23;20000;-70
2023/05/26 04:53:48;;;;;;;27.60;6.20;;;9.60;99.90;;;;;;6241620;23;20007;-70
2023/05/26 04:56:14;;;;;;;19.70;5.72;;;9.70;99.90;;;;;;6241423;23;20000;-70
2023/05/26 04:58:39;;;;;;;30.95;5.80;;;9.70;99.90;;;;;;6241682;23;20057;-70
2023/05/26 05:01:05;;;;;;;22.75;5.93;;;9.80;99.90;;;;;;6241639;23;20000;-70
2023/05/26 05:03:34;;;;;;;27.83;7.00;;;9.80;99.90;;;;;;6241455;23;20015;-70
2023/05/26 05:06:00;;;;;;;33.30;5.85;;;9.80;99.90;;;;;;6241196;23;20026;-70
2023/05/26 05:08:25;;;;;;;21.13;4.80;;;9.90;99.90;;;;;;6241385;23;20494;-70
2023/05/26 05:10:51;;;;;;;30.35;6.97;;;9.90;99.90;;;;;;6241723;23;20031;-70
2023/05/26 05:13:17;;;;;;;25.70;5.85;;;9.90;99.90;;;;;;6241327;23;20039;-70
2023/05/26 05:15:42;;;;;;;29.27;5.80;;;10.00;99.90;;;;;;6214695;23;20489;-71
2023/05/26 05:18:08;;;;;;;29.83;5.43;;;10.00;99.90;;;;;;6241584;23;20076;-70
2023/05/26 05:20:34;;;;;;;26.65;5.55;;;10.00;99.90;;;;;;6240646;23;20028;-70
2023/05/26 05:23:00;;;;;;;24.05;6.85;;;10.10;99.90;;;;;;6239795;23;20005;-70
2023/05/26 05:25:25;;;;;;;28.30;5.68;;;10.10;99.90;;;;;;6237539;23;20475;-70
2023/05/26 05:27:51;;;;;;;23.77;5.25;;;10.20;99.90;;;;;;6238898;23;20070;-70
2023/05/26 05:30:17;;;;;;;29.35;5.82;;;10.20;99.90;;;;;;6240844;23;20004;-70
2023/05/26 05:32:43;;;;;;;23.70;4.97;;;10.30;99.90;;;;;;6241047;23;20004;-71
2023/05/26 05:35:10;;;;;;;27.02;5.70;;;10.40;99.90;;;;;;6239984;23;20030;-70
2023/05/26 05:37:36;;;;;;;30.23;7.20;;;10.50;99.90;;;;;;6241159;23;19996;-70
2023/05/26 05:40:02;;;;;;;34.53;6.35;;;10.50;99.90;;;;;;6241686;23;19992;-70
2023/05/26 05:42:27;;;;;;;29.08;6.38;;;10.50;99.90;;;;;;6241505;23;20001;-70
2023/05/26 05:44:53;;;;;;;36.50;6.60;;;10.60;99.90;;;;;;6241322;23;20091;-70
2023/05/26 05:47:18;;;;;;;26.08;5.72;;;10.60;99.90;;;;;;6240848;23;20517;-70
2023/05/26 05:49:44;;;;;;;26.92;5.63;;;10.70;99.90;;;;;;6213966;23;20004;-70
2023/05/26 05:52:10;;;;;;;27.88;7.45;;;10.70;99.90;;;;;;6241350;23;20083;-70
2023/05/26 05:54:35;;;;;;;31.70;5.70;;;10.80;99.90;;;;;;6241647;23;20329;-70
2023/05/26 05:57:01;;;;;;;25.08;6.13;;;10.90;99.90;;;;;;6241582;23;20008;-70
2023/05/26 05:59:26;;;;;;;21.50;5.50;;;11.00;99.90;;;;;;6240973;23;20000;-70
2023/05/26 06:01:52;;;;;;;28.63;5.65;;;11.10;99.90;;;;;;6214681;23;20004;-70
2023/05/26 06:04:18;;;;;;;29.48;7.53;;;11.10;99.90;;;;;;6214012;23;20349;-70
2023/05/26 06:06:43;;;;;;;31.35;7.13;;;11.10;99.90;;;;;;6241650;23;20012;-70
2023/05/26 06:09:09;;;;;;;33.25;6.88;;;11.20;99.90;;;;;;6241331;23;20000;-70
2023/05/26 06:11:34;;;;;;;33.63;6.70;;;11.30;99.90;;;;;;6241627;23;20011;-71
2023/05/26 06:14:00;;;;;;;24.70;6.47;;;11.30;99.90;;;;;;6241608;23;20079;-70
2023/05/26 06:16:25;;;;;;;24.75;6.55;;;11.40;99.90;;;;;;6241350;23;20062;-70
2023/05/26 06:18:51;;;;;;;25.73;6.30;;;11.40;99.90;;;;;;6240451;23;20000;-70
2023/05/26 06:21:17;;;;;;;33.42;6.40;;;11.50;99.90;;;;;;6241215;23;20334;-70
2023/05/26 06:23:42;;;;;;;20.55;5.50;;;11.50;99.90;;;;;;6241807;23;20004;-70
2023/05/26 06:26:08;;;;;;;27.38;6.05;;;11.50;99.90;;;;;;6243338;23;20181;-71
2023/05/26 06:28:33;;;;;;;27.33;5.93;;;11.50;99.90;;;;;;6243337;23;20026;-70
2023/05/26 06:30:59;;;;;;;25.75;6.15;;;11.60;99.90;;;;;;6243584;23;20089;-70
2023/05/26 06:33:24;;;;;;;24.15;7.45;;;11.50;99.90;;;;;;6242698;23;20012;-70
2023/05/26 06:35:50;;;;;;;29.40;6.40;;;11.50;99.90;;;;;;6243244;23;19997;-71
2023/05/26 06:38:16;;;;;;;33.20;6.75;;;11.50;99.90;;;;;;6242395;23;20473;-71
2023/05/26 06:40:41;;;;;;;20.35;4.65;;;11.50;99.90;;;;;;6216110;23;19996;-71
2023/05/26 06:43:07;;;;;;;27.95;6.40;;;11.50;99.90;;;;;;6242621;23;20007;-72
2023/05/26 06:45:32;;;;;;;17.77;4.35;;;11.60;99.90;;;;;;6214979;23;20434;-72
2023/05/26 06:47:58;;;;;;;27.15;5.65;;;11.70;99.90;;;;;;6241842;23;20145;-72
2023/05/26 06:50:23;;;;;;;22.50;6.00;;;11.80;99.90;;;;;;6241674;23;20015;-72
2023/05/26 06:52:49;;;;;;;27.92;6.00;;;11.80;99.70;;;;;;6242279;23;20143;-72
2023/05/26 06:55:16;;;;;;;28.38;6.28;;;11.90;99.40;;;;;;6241732;23;20008;-72
2023/05/26 06:57:42;;;;;;;31.98;7.13;;;11.90;99.10;;;;;;6215347;23;20041;-72
2023/05/26 07:00:08;;;;;;;30.85;5.97;;;12.00;99.00;;;;;;6241495;23;19999;-72
2023/05/26 07:02:34;;;;;;;21.75;5.57;;;12.00;99.00;;;;;;6242005;23;20192;-72
2023/05/26 07:04:59;;;;;;;24.23;5.38;;;12.00;98.80;;;;;;6242746;23;20314;-72
2023/05/26 07:07:25;;;;;;;26.30;5.20;;;12.10;98.60;;;;;;6241901;23;20028;-72
2023/05/26 07:09:50;;;;;;;27.45;5.70;;;12.10;98.50;;;;;;6242215;23;20058;-72
2023/05/26 07:12:16;;;;;;;22.98;4.60;;;12.20;98.50;;;;;;6241658;23;20322;-72
2023/05/26 07:14:42;;;;;;;27.35;5.57;;;12.30;98.20;;;;;;6241631;23;20340;-72
2023/05/26 07:17:09;;;;;;;20.50;5.10;;;12.50;98.20;;;;;;6215190;23;20004;-72
2023/05/26 07:19:35;;;;;;;23.83;5.70;;;12.60;97.90;;;;;;6241722;23;20606;-73
2023/05/26 07:22:00;;;;;;;23.33;5.55;;;12.70;97.50;;;;;;6242070;23;20024;-72
2023/05/26 07:24:26;;;;;;;23.23;5.22;;;12.80;97.00;;;;;;6241776;23;20109;-72
2023/05/26 07:26:51;;;;;;;27.15;6.60;;;13.00;96.90;;;;;;6242072;23;20279;-73
2023/05/26 07:29:17;;;;;;;20.58;4.80;;;13.00;96.50;;;;;;6240761;23;20004;-73
2023/05/26 07:31:42;;;;;;;28.45;5.93;;;13.00;96.60;;;;;;6242182;23;20000;-72
2023/05/26 07:34:08;;;;;;;24.02;5.38;;;13.10;96.80;;;;;;6241777;23;20010;-72
2023/05/26 07:36:34;;;;;;;22.83;6.57;;;13.20;96.20;;;;;;6241691;23;20141;-72
2023/05/26 07:39:00;;;;;;;21.08;5.20;;;13.30;96.10;;;;;;6241812;23;20027;-72
2023/05/26 07:41:25;;;;;;;20.40;4.90;;;13.30;95.90;;;;;;6214697;23;20008;-72
2023/05/26 07:43:51;;;;;;;19.45;4.43;;;13.40;96.00;;;;;;6214382;23;20031;-73
2023/05/26 07:46:17;;;;;;;20.10;5.30;;;13.60;95.90;;;;;;6214602;23;20379;-72
2023/05/26 07:48:42;;;;;;;18.42;5.75;;;13.70;95.70;;;;;;6241817;23;20004;-72
2023/05/26 07:51:08;;;;;;;21.02;6.03;;;13.60;95.10;;;;;;6241505;23;20075;-73
2023/05/26 07:53:34;;;;;;;28.45;6.45;;;13.50;94.90;;;;;;6241318;23;20031;-69
2023/05/26 07:56:00;;;;;;;23.52;6.15;;;13.40;94.80;;;;;;6241725;23;20008;-70
2023/05/26 07:58:25;;;;;;;27.20;5.80;;;13.30;94.90;;;;;;6240675;23;20023;-70
2023/05/26 08:00:51;;;;;;;26.23;6.80;;;13.30;95.00;;;;;;6241676;23;19992;-70
2023/05/26 08:03:17;;;;;;;19.77;6.32;;;13.40;95.30;;;;;;6240884;23;20003;-70
2023/05/26 08:05:43;;;;;;;19.55;4.70;;;13.50;94.90;;;;;;6214866;23;20011;-70
2023/05/26 08:08:08;;;;;;;28.83;5.47;;;13.50;94.80;;;;;;6241648;23;20052;-70
2023/05/26 08:10:35;;;;;;;18.27;4.30;;;13.70;94.70;;;;;;6241382;23;20091;-70
2023/05/26 08:13:00;;;;;;;23.50;6.50;;;13.80;94.50;;;;;;6241214;23;19996;-70
2023/05/26 08:15:26;;;;;;;20.58;6.72;;;13.90;94.40;;;;;;6241258;23;20070;-70
2023/05/26 08:17:52;;;;;;;22.75;5.07;;;14.00;94.30;;;;;;6241599;23;20491;-70
2023/05/26 08:20:17;;;;;;;18.27;4.15;;;14.20;94.30;;;;;;6241166;23;20498;-72
2023/05/26 08:22:44;;;;;;;22.92;4.95;;;14.30;94.40;;;;;;6241476;23;20441;-73
2023/05/26 08:25:09;;;;;;;22.02;5.30;;;14.50;94.20;;;;;;6241477;23;20004;-73
2023/05/26 08:27:35;;;;;;;22.90;5.60;;;14.60;93.90;;;;;;6240459;23;20115;-73
2023/05/26 08:30:00;;;;;;;22.20;4.72;;;14.70;93.80;;;;;;6241626;23;20028;-71
2023/05/26 08:32:26;;;;;;;22.65;5.43;;;14.70;93.70;;;;;;6240952;23;20000;-71
2023/05/26 08:34:51;;;;;;;16.45;4.05;;;14.70;93.50;;;;;;6241669;23;20007;-70
2023/05/26 08:37:18;;;;;;;19.38;4.82;;;14.90;93.40;;;;;;6240912;23;20016;-70
2023/05/26 08:39:44;;;;;;;18.65;5.70;;;15.00;93.20;;;;;;6241659;23;20000;-70
2023/05/26 08:42:19;;;;;;;18.55;4.60;;;15.10;93.30;;;;;;6240662;23;20000;-71
2023/05/26 08:44:45;;;;;;;21.05;5.38;;;15.20;92.90;;;;;;6241573;23;20012;-70
2023/05/26 08:47:12;;;;;;;20.25;4.68;;;15.20;91.80;;;;;;6240945;23;20001;-70
2023/05/26 08:49:53;;;;;;;13.63;4.75;;;15.20;91.40;;;;;;6241215;23;20425;-70
2023/05/26 08:52:20;;;;;;;17.80;4.82;;;15.20;90.90;;;;;;6240797;23;20068;-71
2023/05/26 08:54:48;;;;;;;20.30;5.22;;;15.10;90.50;;;;;;6241608;23;20367;-70
2023/05/26 08:57:15;;;;;;;18.42;4.65;;;15.10;90.20;;;;;;6240138;23;20004;-70
2023/05/26 08:59:43;;;;;;;20.27;4.70;;;15.10;90.00;;;;;;6241518;23;20028;-71
2023/05/26 09:02:09;;;;;;;19.20;4.55;;;15.00;89.30;;;;;;6241253;23;20007;-70
2023/05/26 09:04:35;;;;;;;17.75;4.57;;;15.00;88.80;;;;;;6241041;23;20107;-71
2023/05/26 09:07:00;;;;;;;19.45;4.97;;;15.00;89.30;;;;;;6241417;23;20004;-70
2023/05/26 09:09:26;;;;;;;18.85;4.72;;;15.10;89.30;;;;;;6240971;23;20098;-70
2023/05/26 09:11:53;;;;;;;24.15;4.97;;;15.10;89.20;;;;;;6213689;23;20008;-70
2023/05/26 09:14:20;;;;;;;18.33;5.38;;;15.20;89.30;;;;;;6240775;23;20089;-70
2023/05/26 09:16:46;;;;;;;18.48;5.63;;;15.20;88.50;;;;;;6213676;23;20484;-70
2023/05/26 09:19:17;;;;;;;17.55;4.63;;;15.30;88.00;;;;;;6240776;23;20032;-70
2023/05/26 09:21:47;;;;;;;16.85;4.28;;;15.30;87.80;;;;;;6241134;23;20001;-70
2023/05/26 09:24:15;;;;;;;16.58;4.10;;;15.40;87.20;;;;;;6240686;23;20019;-70
2023/05/26 09:26:43;;;;;;;17.08;4.70;;;15.50;86.70;;;;;;6213648;23;20027;-70
2023/05/26 09:29:09;;;;;;;17.17;3.95;;;15.60;86.30;;;;;;6240891;23;20004;-70
2023/05/26 09:31:48;;;;;;;24.88;4.63;;;15.60;85.80;;;;;;6240962;23;20402;-70
2023/05/26 09:34:15;;;;;;;12.13;3.78;;;15.70;84.70;;;;;;6240563;23;20008;-70
2023/05/26 09:36:41;;;;;;;12.73;4.13;;;15.70;84.90;;;;;;6240724;23;20007;-70
2023/05/26 09:39:13;;;;;;;15.35;4.15;;;15.70;84.80;;;;;;6241005;23;20488;-70
2023/05/26 09:41:41;;;;;;;13.95;4.45;;;15.80;84.00;;;;;;6240470;23;20070;-70
2023/05/26 09:44:11;;;;;;;16.77;4.85;;;15.90;84.60;;;;;;6241020;23;20008;-70
2023/05/26 09:46:38;;;;;;;16.90;3.42;;;16.00;83.70;;;;;;6241112;23;20019;-70
2023/05/26 09:49:12;;;;;;;15.82;4.38;;;16.10;83.20;;;;;;6240981;23;20426;-71
2023/05/26 09:51:38;;;;;;;15.25;4.13;;;16.20;82.20;;;;;;6241069;23;20000;-70
2023/05/26 09:54:04;;;;;;;15.25;4.28;;;16.20;82.30;;;;;;6240776;23;20028;-71
2023/05/26 09:56:34;;;;;;;18.23;4.97;;;16.20;81.30;;;;;;6240310;23;20001;-70
2023/05/26 09:59:06;;;;;;;17.08;4.45;;;16.30;81.30;;;;;;6214480;23;19997;-70
2023/05/26 10:01:35;;;;;;;15.98;5.90;;;16.30;81.90;;;;;;6242400;23;20087;-70
2023/05/26 10:04:03;;;;;;;16.60;4.82;;;16.40;81.20;;;;;;6242977;23;20031;-70
2023/05/26 10:06:31;;;;;;;16.00;4.50;;;16.40;81.40;;;;;;6215683;23;20047;-70
2023/05/26 10:08:57;;;;;;;19.38;5.93;;;16.50;81.80;;;;;;6215373;23;20078;-70
2023/05/26 10:11:27;;;;;;;16.00;4.05;;;16.50;80.40;;;;;;6241368;23;20027;-71
2023/05/26 10:13:54;;;;;;;19.30;5.57;;;16.50;80.70;;;;;;6242789;23;20441;-70
2023/05/26 10:16:20;;;;;;;18.35;5.30;;;16.60;81.00;;;;;;6242312;23;19996;-70
2023/05/26 10:18:46;;;;;;;20.25;5.25;;;16.70;81.30;;;;;;6242758;23;19992;-70
2023/05/26 10:21:13;;;;;;;18.08;4.78;;;16.80;79.90;;;;;;6242184;23;20011;-70
2023/05/26 10:23:44;;;;;;;15.98;4.32;;;16.90;79.50;;;;;;6241836;23;20362;-71
2023/05/26 10:26:19;;;;;;;14.48;4.10;;;16.90;78.50;;;;;;6238922;23;20013;-70
2023/05/26 10:29:03;;;;;;;12.27;3.95;;;17.00;78.40;;;;;;6240159;23;20544;-70
2023/05/26 10:31:34;;;;;;;12.77;3.80;;;17.00;78.50;;;;;;6240677;23;20011;-71
2023/05/26 10:33:59;;;;;;;11.00;3.65;;;17.10;78.60;;;;;;6240745;23;20014;-71
2023/05/26 10:36:26;;;;;;;21.75;4.93;;;17.20;76.10;;;;;;6239628;23;20549;-70
2023/05/26 10:38:53;;;;;;;19.23;5.22;;;17.10;75.10;;;;;;6240360;23;20000;-71
2023/05/26 10:41:59;;;;;;;17.70;4.82;;;17.10;75.50;;;;;;6240951;23;20003;-70
2023/05/26 10:44:43;;;;;;;9.95;3.75;;;17.10;75.70;;;;;;6234853;23;20011;-71
2023/05/26 10:47:12;;;;;;;;;;;17.20;75.20;;;;;;6243001;23;20029;-70
2023/05/26 10:49:38;;;;;;;15.95;3.78;;;17.20;74.30;;;;;;6242705;23;19900;-70
2023/05/26 10:52:13;;;;;;;17.50;4.88;;;17.20;74.50;;;;;;6242417;23;20084;-70
2023/05/26 10:54:40;;;;;;;17.05;5.07;;;17.30;74.30;;;;;;6242544;23;20408;-70
2023/05/26 10:57:26;;;;;;;14.93;4.22;;;17.30;74.20;;;;;;6242363;23;20028;-70
2023/05/26 10:59:53;;;;;;;9.77;2.72;;;17.40;73.60;;;;;;6215259;23;20004;-70
2023/05/26 11:02:20;;;;;;;15.95;4.53;;;17.40;73.30;;;;;;6242184;23;19996;-71
2023/05/26 11:04:47;;;;;;;13.05;3.55;;;17.50;73.10;;;;;;6242213;23;20434;-70
2023/05/26 11:07:26;;;;;;;11.75;3.28;;;17.50;72.60;;;;;;6241584;23;20000;-70
2023/05/26 11:09:57;;;;;;;14.57;3.80;;;17.50;72.00;;;;;;6242269;23;20357;-70
2023/05/26 11:12:23;;;;;;;15.43;5.30;;;17.60;71.70;;;;;;6242250;23;20071;-70
2023/05/26 11:14:48;;;;;;;11.48;3.88;;;17.60;70.90;;;;;;6215303;23;20008;-70
2023/05/26 11:17:18;;;;;;;15.55;4.32;;;17.60;70.90;;;;;;6215190;23;20061;-70
2023/05/26 11:19:53;;;;;;;18.80;4.63;;;17.60;70.70;;;;;;6242273;23;20004;-71
2023/05/26 11:22:21;;;;;;;14.75;3.85;;;17.70;71.00;;;;;;6241651;23;19996;-70
2023/05/26 11:24:49;;;;;;;12.18;3.88;;;17.70;70.30;;;;;;6242637;23;20422;-70
2023/05/26 11:27:15;;;;;;;14.73;4.45;;;17.70;70.50;;;;;;6242010;23;20012;-71
2023/05/26 11:29:40;;;;;;;12.68;3.80;;;17.80;71.10;;;;;;6242722;23;20015;-70
2023/05/26 11:32:06;;;;;;;13.00;3.83;;;17.90;71.50;;;;;;6242436;23;20019;-70
2023/05/26 11:34:32;;;;;;;12.32;3.88;;;17.90;71.00;;;;;;6242081;23;20000;-70
2023/05/26 11:36:58;;;;;;;10.52;3.35;;;17.90;70.20;;;;;;6242175;23;20011;-70
2023/05/26 11:39:24;;;;;;;10.63;3.80;;;17.90;69.70;;;;;;6242084;23;20005;-70
2023/05/26 11:41:50;;;;;;;15.15;4.55;;;17.90;69.60;;;;;;6242586;23;20467;-70
2023/05/26 11:44:15;;;;;;;14.23;4.75;;;17.90;69.60;;;;;;6215276;23;20011;-70
2023/05/26 11:46:43;;;;;;;13.63;3.63;;;17.90;69.90;;;;;;6242306;23;20008;-71
2023/05/26 11:49:16;;;;;;;13.93;3.22;;;17.90;70.20;;;;;;6215123;23;20004;-71
2023/05/26 11:51:52;;;;;;;12.65;3.55;;;18.00;69.10;;;;;;6241392;23;20050;-71
2023/05/26 11:54:19;;;;;;;11.45;3.60;;;18.00;68.60;;;;;;6241511;23;20456;-71
2023/05/26 11:56:46;;;;;;;10.85;4.40;;;18.00;68.60;;;;;;6215119;23;20052;-71
2023/05/26 11:59:19;;;;;;;9.35;3.17;;;18.10;67.60;;;;;;6241409;23;20004;-71
2023/05/26 12:01:46;;;;;;;13.68;3.95;;;18.10;66.40;;;;;;6241177;23;20000;-71
2023/05/26 12:04:12;;;;;;;10.93;3.60;;;18.00;67.30;;;;;;6241455;23;20058;-71
2023/05/26 12:06:41;;;;;;;11.77;3.55;;;18.10;68.80;;;;;;6241307;23;20210;-71
2023/05/26 12:09:21;;;;;;;11.45;3.80;;;18.20;69.60;;;;;;6214709;23;20039;-71
2023/05/26 12:11:50;;;;;;;15.45;4.05;;;18.40;69.50;;;;;;6241813;23;20042;-71
2023/05/26 12:14:15;;;;;;;15.60;3.67;;;18.30;68.70;;;;;;6214516;23;20050;-71
2023/05/26 12:16:43;;;;;;;14.40;4.32;;;18.30;67.90;;;;;;6242011;23;20071;-71
2023/05/26 12:19:12;;;;;;;10.27;4.25;;;18.30;68.70;;;;;;6213748;23;20106;-73
2023/05/26 12:21:45;;;;;;;20.02;4.35;;;18.50;69.60;;;;;;6214426;23;20458;-74
2023/05/26 12:24:11;;;;;;;16.80;4.30;;;18.50;69.20;;;;;;6241198;23;20054;-75
2023/05/26 12:26:37;;;;;;;16.85;4.63;;;18.60;69.30;;;;;;6241558;23;20023;-75
2023/05/26 12:29:11;;;;;;;11.60;4.63;;;18.60;68.90;;;;;;6214944;23;20036;-74
2023/05/26 12:31:41;;;;;;;14.65;4.18;;;18.60;68.40;;;;;;6214609;23;20431;-70
2023/05/26 12:34:12;;;;;;;12.68;4.20;;;18.60;68.80;;;;;;6240010;23;20008;-69
2023/05/26 12:36:38;;;;;;;14.55;4.45;;;18.70;68.70;;;;;;6241150;23;20060;-69
2023/05/26 12:39:04;;;;;;;13.45;4.18;;;18.70;68.60;;;;;;6241164;23;20030;-70
2023/05/26 12:41:30;;;;;;;11.60;3.47;;;18.80;68.50;;;;;;6240734;23;20016;-70